createdAt,value
2022-11-23T00:01:42.935Z,53.17
2022-11-23T00:04:44.412Z,50.13
2022-11-23T00:07:46.107Z,52.13
2022-11-23T00:10:47.587Z,47.10
2022-11-23T00:13:49.173Z,46.65
2022-11-23T00:16:50.636Z,46.22
2022-11-23T00:19:52.133Z,45.08
2022-11-23T00:22:53.600Z,46.78
2022-11-23T00:25:55.070Z,41.22
2022-11-23T00:28:56.647Z,43.58
2022-11-23T00:32:01.664Z,47.72
2022-11-23T00:35:03.279Z,44.05
2022-11-23T00:38:05.920Z,48.60
2022-11-23T00:41:10.140Z,40.97
2022-11-23T00:44:11.857Z,43.35
2022-11-23T00:47:13.324Z,40.38
2022-11-23T00:50:15.002Z,38.17
2022-11-23T00:53:17.252Z,36.58
2022-11-23T00:56:20.094Z,35.55
2022-11-23T00:59:21.571Z,36.10
2022-11-23T01:02:23.150Z,36.17
2022-11-23T01:05:24.638Z,32.72
2022-11-23T01:08:26.132Z,36.33
2022-11-23T01:11:30.418Z,30.88
2022-11-23T01:14:31.898Z,33.42
2022-11-23T01:17:33.358Z,32.53
2022-11-23T01:20:34.852Z,33.83
2022-11-23T01:23:36.542Z,32.22
2022-11-23T01:26:38.693Z,31.73
2022-11-23T01:29:40.133Z,30.88
2022-11-23T01:32:41.698Z,28.25
2022-11-23T01:35:43.203Z,28.73
2022-11-23T01:38:46.216Z,26.83
2022-11-23T01:41:48.713Z,28.52
2022-11-23T01:44:52.695Z,29.77
2022-11-23T01:47:54.232Z,27.02
2022-11-23T01:50:57.634Z,26.73
2022-11-23T01:54:04.958Z,25.95
2022-11-23T01:57:13.793Z,27.25
2022-11-23T02:00:15.820Z,27.65
2022-11-23T02:03:18.540Z,27.17
2022-11-23T02:06:23.067Z,26.58
2022-11-23T02:09:24.831Z,27.65
2022-11-23T02:12:26.389Z,25.92
2022-11-23T02:15:27.931Z,25.30
2022-11-23T02:18:31.552Z,27.00
2022-11-23T02:21:33.145Z,24.98
2022-11-23T02:24:40.972Z,22.95
2022-11-23T02:27:47.126Z,25.92
2022-11-23T02:30:52.484Z,25.40
2022-11-23T02:33:57.891Z,22.98
2022-11-23T02:36:59.782Z,25.20
2022-11-23T02:40:11.544Z,23.90
2022-11-23T02:43:13.596Z,23.65
2022-11-23T02:46:15.275Z,22.00
2022-11-23T02:49:16.783Z,22.83
2022-11-23T02:52:19.434Z,22.85
2022-11-23T02:55:21.056Z,21.98
2022-11-23T02:58:22.579Z,20.83
2022-11-23T03:01:24.144Z,20.60
2022-11-23T03:04:27.804Z,18.02
2022-11-23T03:07:29.804Z,19.65
2022-11-23T03:10:34.029Z,19.77
2022-11-23T03:13:36.198Z,17.85
2022-11-23T03:16:38.271Z,17.70
2022-11-23T03:19:41.764Z,19.17
2022-11-23T03:22:45.341Z,17.48
2022-11-23T03:25:58.899Z,17.27
2022-11-23T03:29:05.639Z,17.95
2022-11-23T03:32:07.426Z,17.58
2022-11-23T03:35:09.709Z,16.10
2022-11-23T03:38:22.541Z,17.83
2022-11-23T03:41:24.160Z,16.60
2022-11-23T03:44:27.960Z,17.48
2022-11-23T03:47:29.558Z,17.08
2022-11-23T03:50:31.177Z,18.48
2022-11-23T03:53:32.822Z,19.00
2022-11-23T03:56:34.439Z,15.38
2022-11-23T03:59:36.205Z,17.60
2022-11-23T04:02:37.762Z,17.45
2022-11-23T04:05:43.907Z,17.27
2022-11-23T04:09:04.076Z,14.38
2022-11-23T04:12:18.132Z,14.63
2022-11-23T04:15:20.172Z,17.15
2022-11-23T04:18:21.720Z,15.70
2022-11-23T04:21:23.576Z,13.90
2022-11-23T04:24:25.303Z,15.65
2022-11-23T04:27:29.652Z,14.77
2022-11-23T04:30:31.184Z,14.57
2022-11-23T04:33:33.592Z,13.13
2022-11-23T04:36:35.285Z,14.25
2022-11-23T04:39:37.284Z,14.05
2022-11-23T04:43:04.780Z,14.43
2022-11-23T04:46:11.300Z,13.80
2022-11-23T04:49:13.043Z,13.77
2022-11-23T04:52:14.897Z,14.07
2022-11-23T04:55:20.838Z,13.38
2022-11-23T04:58:36.544Z,10.85
2022-11-23T05:01:38.252Z,12.70
2022-11-23T05:05:06.315Z,12.25
2022-11-23T05:08:08.583Z,11.85
2022-11-23T05:11:25.330Z,10.55
2022-11-23T05:14:26.972Z,11.98
2022-11-23T05:17:28.612Z,10.68
2022-11-23T05:20:30.706Z,10.90
2022-11-23T05:23:32.624Z,11.45
2022-11-23T05:26:34.505Z,9.40
2022-11-23T05:29:37.543Z,9.77
2022-11-23T05:32:40.831Z,10.20
2022-11-23T05:35:42.347Z,10.43
2022-11-23T05:38:43.968Z,10.45
2022-11-23T05:42:01.335Z,10.15
2022-11-23T05:45:22.395Z,9.48
2022-11-23T05:48:27.923Z,11.38
2022-11-23T05:51:32.940Z,9.70
2022-11-23T05:54:35.190Z,10.27
2022-11-23T05:57:45.798Z,10.20
2022-11-23T06:00:47.355Z,9.25
2022-11-23T06:03:51.530Z,10.57
2022-11-23T06:06:59.089Z,9.23
2022-11-23T06:10:01.668Z,8.88
2022-11-23T06:13:04.922Z,8.05
2022-11-23T06:16:08.155Z,9.25
2022-11-23T06:19:20.385Z,8.60
2022-11-23T06:22:22.210Z,8.80
2022-11-23T06:25:34.862Z,9.25
2022-11-23T06:28:44.704Z,7.85
2022-11-23T06:31:46.988Z,8.55
2022-11-23T06:34:48.991Z,8.15
2022-11-23T06:37:51.954Z,9.38
2022-11-23T06:40:56.964Z,9.07
2022-11-23T06:43:58.498Z,7.78
2022-11-23T06:47:16.507Z,6.60
2022-11-23T06:50:18.963Z,9.73
2022-11-23T06:53:22.221Z,7.88
2022-11-23T06:56:31.394Z,8.38
2022-11-23T06:59:33.193Z,8.85
2022-11-23T07:02:34.799Z,8.50
2022-11-23T07:05:38.551Z,7.30
2022-11-23T07:08:43.332Z,7.80
2022-11-23T07:11:57.602Z,6.78
2022-11-23T07:14:59.075Z,7.95
2022-11-23T07:18:05.625Z,7.93
2022-11-23T07:21:08.103Z,7.22
2022-11-23T07:24:10.264Z,8.00
2022-11-23T07:27:11.775Z,7.50
2022-11-23T07:30:13.744Z,7.75
2022-11-23T07:33:15.279Z,7.68
2022-11-23T07:36:17.080Z,8.88
2022-11-23T07:39:28.529Z,10.80
2022-11-23T07:42:45.021Z,23.92
2022-11-23T07:45:47.988Z,37.83
2022-11-23T07:48:51.577Z,49.90
2022-11-23T07:51:54.200Z,60.13
2022-11-23T07:54:56.907Z,69.55
2022-11-23T07:57:58.424Z,84.32
2022-11-23T08:00:59.939Z,101.50
2022-11-23T08:04:01.420Z,159.32
2022-11-23T08:07:03.799Z,213.55
2022-11-23T08:10:05.911Z,221.00
2022-11-23T08:13:07.555Z,240.73
2022-11-23T08:16:09.496Z,254.70
2022-11-23T08:19:10.953Z,282.48
2022-11-23T08:22:15.723Z,279.58
2022-11-23T08:25:17.540Z,270.38
2022-11-23T08:28:19.577Z,286.27
2022-11-23T08:31:21.067Z,277.63
2022-11-23T08:34:22.544Z,268.48
2022-11-23T08:37:23.990Z,286.42
2022-11-23T08:40:26.047Z,281.08
2022-11-23T08:43:28.600Z,265.70
2022-11-23T08:46:30.272Z,262.30
2022-11-23T08:49:31.717Z,254.32
2022-11-23T08:52:33.287Z,260.30
2022-11-23T08:55:34.868Z,290.35
2022-11-23T08:58:36.788Z,316.00
2022-11-23T09:01:38.303Z,308.42
2022-11-23T09:04:40.928Z,308.23
2022-11-23T09:07:42.541Z,347.40
2022-11-23T09:10:44.083Z,346.38
2022-11-23T09:13:45.532Z,359.73
2022-11-23T09:16:47.031Z,364.35
2022-11-23T09:19:50.307Z,361.55
2022-11-23T09:22:53.053Z,361.35
2022-11-23T09:25:54.553Z,359.90
2022-11-23T09:28:56.015Z,323.15
2022-11-23T09:31:57.453Z,392.92
2022-11-23T09:34:58.946Z,367.50
2022-11-23T09:38:01.256Z,390.80
2022-11-23T09:41:12.528Z,376.73
2022-11-23T09:44:43.660Z,367.63
2022-11-23T09:48:14.803Z,353.00
2022-11-23T09:51:18.659Z,337.45
2022-11-23T09:54:26.676Z,317.95
2022-11-23T09:57:31.944Z,326.45
2022-11-23T10:00:46.423Z,323.90
2022-11-23T10:03:49.395Z,300.35
2022-11-23T10:07:00.270Z,284.65
2022-11-23T10:10:10.573Z,278.75
2022-11-23T10:13:30.246Z,270.35
2022-11-23T10:16:49.394Z,245.23
2022-11-23T10:20:13.436Z,241.50
2022-11-23T10:23:45.255Z,225.90
2022-11-23T10:26:49.748Z,232.15
2022-11-23T10:29:56.321Z,241.88
2022-11-23T10:35:59.189Z,214.93
2022-11-23T10:39:02.105Z,218.40
2022-11-23T10:42:18.143Z,239.35
2022-11-23T10:45:25.302Z,210.83
2022-11-23T10:48:36.031Z,205.13
2022-11-23T10:51:37.860Z,185.07
2022-11-23T10:54:54.508Z,180.75
2022-11-23T10:57:57.112Z,171.68
2022-11-23T11:01:03.746Z,183.70
2022-11-23T11:04:22.934Z,176.75
2022-11-23T11:07:28.513Z,154.48
2022-11-23T11:11:01.056Z,166.67
2022-11-23T11:14:05.479Z,164.20
2022-11-23T11:17:26.499Z,166.80
2022-11-23T11:20:27.956Z,155.10
2022-11-23T11:23:31.267Z,158.18
2022-11-23T11:26:35.912Z,160.48
2022-11-23T11:29:45.460Z,155.68
2022-11-23T11:33:14.633Z,157.07
2022-11-23T11:36:16.929Z,154.20
2022-11-23T11:39:27.770Z,147.50
2022-11-23T11:42:34.921Z,143.23
2022-11-23T11:45:59.714Z,139.38
2022-11-23T11:49:22.736Z,135.95
2022-11-23T11:52:37.234Z,137.32
2022-11-23T11:56:04.414Z,124.82
2022-11-23T11:59:28.220Z,128.52
2022-11-23T12:02:45.152Z,123.90
2022-11-23T12:05:48.950Z,126.60
2022-11-23T12:09:12.968Z,125.35
2022-11-23T12:12:18.040Z,121.30
2022-11-23T12:19:09.163Z,102.50
2022-11-23T12:22:13.678Z,122.78
2022-11-23T12:25:33.223Z,97.05
2022-11-23T12:29:02.239Z,99.80
2022-11-23T12:32:25.592Z,97.22
2022-11-23T12:36:12.242Z,96.88
2022-11-23T12:39:32.404Z,93.55
2022-11-23T12:43:05.716Z,93.57
2022-11-23T12:46:20.898Z,90.65
2022-11-23T12:50:00.010Z,87.05
2022-11-23T12:53:35.744Z,87.03
2022-11-23T12:57:09.766Z,82.57
2022-11-23T13:00:19.797Z,74.15
2022-11-23T13:03:33.561Z,77.25
2022-11-23T13:07:29.520Z,77.60
2022-11-23T13:11:05.722Z,76.20
2022-11-23T13:14:31.290Z,71.57
2022-11-23T13:17:42.514Z,74.75
2022-11-23T13:21:07.571Z,69.68
2022-11-23T13:24:25.760Z,70.05
2022-11-23T13:27:31.704Z,70.70
2022-11-23T13:31:07.184Z,73.03
2022-11-23T13:34:02.658Z,79.18
2022-11-23T13:37:13.089Z,72.78
2022-11-23T13:40:24.595Z,74.13
2022-11-23T13:43:32.054Z,68.10
2022-11-23T13:46:35.727Z,73.68
2022-11-23T13:49:44.468Z,71.72
2022-11-23T13:52:50.724Z,70.07
2022-11-23T13:55:56.020Z,66.50
2022-11-23T13:58:58.991Z,62.83
2022-11-23T14:02:00.551Z,67.57
2022-11-23T14:05:31.501Z,62.28
2022-11-23T14:08:35.180Z,64.60
2022-11-23T14:11:50.747Z,62.33
2022-11-23T14:15:07.404Z,59.85
2022-11-23T14:18:36.065Z,58.95
2022-11-23T14:22:02.491Z,60.53
2022-11-23T14:25:35.299Z,54.60
2022-11-23T14:29:12.667Z,51.78
2022-11-23T14:32:50.263Z,49.85
2022-11-23T14:35:57.749Z,52.50
2022-11-23T14:39:14.466Z,51.60
2022-11-23T14:42:20.599Z,50.63
2022-11-23T14:45:25.363Z,46.25
2022-11-23T14:48:31.699Z,43.20
2022-11-23T14:51:34.872Z,51.20
2022-11-23T14:54:37.055Z,46.22
2022-11-23T14:57:42.365Z,43.10
2022-11-23T15:00:44.147Z,45.85
2022-11-23T15:03:56.276Z,41.20
2022-11-23T15:07:22.253Z,42.58
2022-11-23T15:10:38.906Z,40.83
2022-11-23T15:13:52.157Z,43.10
2022-11-23T15:16:53.682Z,42.95
2022-11-23T15:20:00.962Z,41.95
2022-11-23T15:23:03.834Z,38.53
2022-11-23T15:26:34.807Z,40.10
2022-11-23T15:29:39.151Z,36.35
2022-11-23T15:32:40.906Z,36.95
2022-11-23T15:35:42.546Z,35.17
2022-11-23T15:38:44.374Z,40.15
2022-11-23T15:41:47.204Z,36.88
2022-11-23T15:44:51.159Z,32.08
2022-11-23T15:47:53.076Z,33.05
2022-11-23T15:51:03.934Z,31.38
2022-11-23T15:54:11.911Z,35.15
2022-11-23T15:57:19.809Z,32.97
2022-11-23T16:00:24.810Z,31.90
2022-11-23T16:03:31.915Z,33.10
2022-11-23T16:06:41.525Z,30.20
2022-11-23T16:09:52.717Z,30.98
2022-11-23T16:13:02.731Z,29.90
2022-11-23T16:16:16.765Z,28.95
2022-11-23T16:19:24.871Z,30.50
2022-11-23T16:22:38.620Z,26.90
2022-11-23T16:25:40.212Z,27.17
2022-11-23T16:28:54.481Z,29.55
2022-11-23T16:31:59.812Z,26.73
2022-11-23T16:35:19.529Z,24.45
2022-11-23T16:38:21.096Z,23.45
2022-11-23T16:41:22.596Z,21.10
2022-11-23T16:44:24.110Z,20.73
2022-11-23T16:47:27.055Z,27.00
2022-11-23T16:50:33.770Z,22.58
2022-11-23T16:54:07.899Z,22.58
2022-11-23T16:56:56.862Z,21.63
2022-11-23T17:00:02.381Z,24.55
2022-11-23T17:03:03.952Z,28.43
2022-11-23T17:06:05.591Z,20.55
2022-11-23T17:09:08.282Z,22.42
2022-11-23T17:12:16.854Z,20.63
2022-11-23T17:15:21.453Z,20.48
2022-11-23T17:18:23.035Z,21.88
2022-11-23T17:21:24.481Z,22.40
2022-11-23T17:24:25.944Z,24.00
2022-11-23T17:27:28.235Z,18.13
2022-11-23T17:30:29.823Z,18.33
2022-11-23T17:33:31.338Z,21.38
2022-11-23T17:36:33.418Z,17.90
2022-11-23T17:39:35.781Z,17.80
2022-11-23T17:42:37.387Z,20.00
2022-11-23T17:45:38.987Z,16.52
2022-11-23T17:48:40.668Z,18.08
2022-11-23T17:51:43.106Z,20.48
2022-11-23T17:54:44.607Z,19.20
2022-11-23T17:57:46.082Z,17.95
2022-11-23T18:00:47.552Z,16.58
2022-11-23T18:03:49.646Z,19.27
2022-11-23T18:06:51.172Z,17.60
2022-11-23T18:09:52.734Z,19.25
2022-11-23T18:12:54.206Z,16.98
2022-11-23T18:15:55.853Z,16.75
2022-11-23T18:18:57.497Z,19.83
2022-11-23T18:21:59.144Z,15.30
2022-11-23T18:25:00.637Z,18.00
2022-11-23T18:28:02.121Z,16.40
2022-11-23T18:31:03.663Z,17.67
2022-11-23T18:34:05.424Z,16.13
2022-11-23T18:37:07.760Z,17.80
2022-11-23T18:40:09.713Z,18.90
2022-11-23T18:43:11.247Z,18.70
2022-11-23T18:46:19.272Z,19.48
2022-11-23T18:49:21.004Z,15.75
2022-11-23T18:52:22.856Z,16.08
2022-11-23T18:55:24.335Z,16.83
2022-11-23T18:58:25.840Z,15.63
2022-11-23T19:01:27.694Z,15.52
2022-11-23T19:04:32.367Z,14.10
2022-11-23T19:07:33.912Z,17.08
2022-11-23T19:10:37.643Z,17.48
2022-11-23T19:13:39.119Z,11.90
2022-11-23T19:16:40.601Z,14.85
2022-11-23T19:19:42.158Z,16.30
2022-11-23T19:22:43.639Z,15.48
2022-11-23T19:25:45.112Z,16.33
2022-11-23T19:28:47.216Z,15.57
2022-11-23T19:31:54.287Z,20.25
2022-11-23T19:34:55.754Z,12.60
2022-11-23T19:37:58.129Z,14.98
2022-11-23T19:40:59.628Z,14.70
2022-11-23T19:44:01.585Z,13.93
2022-11-23T19:47:06.172Z,13.30
2022-11-23T19:50:10.164Z,13.98
2022-11-23T19:53:13.060Z,15.95
2022-11-23T19:56:17.306Z,15.38
2022-11-23T19:59:18.872Z,15.95
2022-11-23T20:02:25.193Z,12.88
2022-11-23T20:05:27.249Z,15.43
2022-11-23T20:08:28.805Z,13.13
2022-11-23T20:11:32.244Z,15.63
2022-11-23T20:14:33.705Z,15.25
2022-11-23T20:17:35.188Z,17.77
2022-11-23T20:20:44.760Z,19.48
2022-11-23T20:23:47.466Z,17.80
2022-11-23T20:26:48.929Z,18.95
2022-11-23T20:29:50.399Z,18.40
2022-11-23T20:32:52.087Z,18.17
2022-11-23T20:35:53.637Z,16.00
2022-11-23T20:38:55.682Z,17.38
2022-11-23T20:41:58.549Z,19.60
2022-11-23T20:45:00.048Z,19.70
2022-11-23T20:48:01.554Z,17.20
2022-11-23T20:51:10.086Z,18.42
2022-11-23T20:54:12.204Z,16.05
2022-11-23T20:57:13.744Z,18.08
2022-11-23T21:00:16.757Z,18.38
2022-11-23T21:03:18.434Z,18.17
2022-11-23T21:06:21.115Z,19.42
2022-11-23T21:09:22.643Z,15.02
2022-11-23T21:12:47.591Z,16.13
2022-11-23T21:15:51.869Z,15.55
2022-11-23T21:18:53.356Z,14.68
2022-11-23T21:21:55.564Z,15.02
2022-11-23T21:24:57.067Z,15.35
2022-11-23T21:27:58.522Z,15.75
2022-11-23T21:31:10.115Z,14.45
2022-11-23T21:34:22.888Z,15.18
2022-11-23T21:37:25.988Z,15.02
2022-11-23T21:40:28.146Z,13.73
2022-11-23T21:43:31.223Z,14.35
2022-11-23T21:46:32.906Z,14.30
2022-11-23T21:49:34.459Z,12.57
2022-11-23T21:52:35.966Z,13.02
2022-11-23T21:55:37.457Z,12.85
2022-11-23T21:58:40.007Z,11.65
2022-11-23T22:01:42.450Z,14.27
2022-11-23T22:04:44.102Z,12.82
2022-11-23T22:08:00.531Z,15.00
2022-11-23T22:11:31.952Z,11.60
2022-11-23T22:14:33.841Z,14.45
2022-11-23T22:17:35.532Z,12.57
2022-11-23T22:20:37.530Z,12.82
2022-11-23T22:23:39.730Z,12.20
2022-11-23T22:26:41.827Z,13.68
2022-11-23T22:29:43.449Z,14.98
2022-11-23T22:32:45.054Z,15.80
2022-11-23T22:35:46.713Z,16.15
2022-11-23T22:38:48.600Z,17.60
2022-11-23T22:41:50.186Z,15.20
2022-11-23T22:44:51.784Z,15.15
2022-11-23T22:47:53.585Z,15.15
2022-11-23T22:50:56.854Z,13.77
2022-11-23T22:54:00.115Z,16.60
2022-11-23T22:57:01.719Z,13.60
2022-11-23T23:00:04.632Z,13.10
2022-11-23T23:03:06.380Z,14.48
2022-11-23T23:06:15.912Z,13.13
2022-11-23T23:09:17.840Z,16.40
2022-11-23T23:12:19.408Z,13.32
2022-11-23T23:15:21.606Z,14.25
2022-11-23T23:18:23.236Z,17.95
2022-11-23T23:21:26.443Z,12.40
2022-11-23T23:24:28.128Z,11.25
2022-11-23T23:27:30.697Z,11.93
2022-11-23T23:30:32.592Z,12.68
2022-11-23T23:33:35.201Z,11.65
2022-11-23T23:36:37.180Z,13.27
2022-11-23T23:39:38.868Z,10.40
2022-11-23T23:42:40.579Z,11.02
2022-11-23T23:45:42.301Z,11.90
2022-11-23T23:48:44.610Z,12.32
2022-11-23T23:51:51.292Z,11.88
2022-11-23T23:54:53.283Z,10.43
2022-11-23T23:57:54.901Z,11.13
